Nozovka, Russia
Current Conditions -  °F | °C
As of 9:00 AM on Monday 24 Nov 2014 (Local Time) from USPP Reporting Station
Clear Clear  
Wind Chill: -24°   Ceiling: Unl
Heat Index: -9°   Visibility: 6mi
Dew Point: -15°   Wind: 7mph
Humidity: 77%   Direction: 240°WSW
Pressure: 30.68"   Gusts: NA
Location:  57.08°N, 54.75°E
Report Text: USPP 240400Z 24003MPS CAVOK M23/M26 Q1039 21820255 NOSIG RMKQFE769/1025
Loading
Personal Weather Stations






























Interactive Weather Map New forecast layout! Learn more

10-Day Weather Forecast

Advertisements
Track Severe Weather on mobile